createdAt,value
2018-02-22T00:00:58.882Z,30.50
2018-02-22T00:03:26.425Z,31.77
2018-02-22T00:05:53.892Z,28.23
2018-02-22T00:08:21.441Z,35.43
2018-02-22T00:10:48.926Z,35.13
2018-02-22T00:13:16.402Z,35.43
2018-02-22T00:15:43.970Z,34.03
2018-02-22T00:18:11.525Z,24.37
2018-02-22T00:20:38.991Z,43.87
2018-02-22T00:23:06.475Z,47.13
2018-02-22T00:25:34.038Z,21.57
2018-02-22T00:28:01.507Z,48.30
2018-02-22T00:30:28.992Z,34.17
2018-02-22T00:32:56.487Z,35.93
2018-02-22T00:35:23.946Z,38.77
2018-02-22T00:37:51.422Z,36.50
2018-02-22T00:40:18.975Z,24.27
2018-02-22T00:42:46.440Z,23.23
2018-02-22T00:45:13.909Z,30.20
2018-02-22T00:47:41.393Z,31.10
2018-02-22T00:50:08.859Z,23.80
2018-02-22T00:52:36.335Z,52.80
2018-02-22T00:55:03.842Z,27.77
2018-02-22T00:57:31.353Z,31.47
2018-02-22T00:59:58.932Z,50.90
2018-02-22T01:02:26.564Z,26.20
2018-02-22T01:04:54.035Z,46.13
2018-02-22T01:07:21.507Z,44.10
2018-02-22T01:09:49.007Z,28.27
2018-02-22T01:12:16.474Z,29.43
2018-02-22T01:14:43.969Z,25.63
2018-02-22T01:17:11.467Z,28.27
2018-02-22T01:19:38.987Z,26.03
2018-02-22T01:22:06.467Z,32.20
2018-02-22T01:24:33.942Z,37.07
2018-02-22T01:27:01.400Z,37.03
2018-02-22T01:29:28.906Z,19.67
2018-02-22T01:31:56.467Z,18.73
2018-02-22T01:34:23.934Z,20.47
2018-02-22T01:36:51.406Z,31.33
2018-02-22T01:39:18.883Z,27.37
2018-02-22T01:41:46.378Z,26.27
2018-02-22T01:44:13.838Z,27.73
2018-02-22T01:46:41.298Z,21.50
2018-02-22T01:49:08.778Z,24.73
2018-02-22T01:51:36.246Z,36.83
2018-02-22T01:54:03.785Z,33.13
2018-02-22T01:56:31.302Z,23.77
2018-02-22T01:58:58.757Z,33.07
2018-02-22T02:01:26.218Z,37.13
2018-02-22T02:03:53.731Z,31.27
2018-02-22T02:06:21.186Z,32.33
2018-02-22T02:08:48.727Z,24.07
2018-02-22T02:11:16.203Z,31.57
2018-02-22T02:13:43.671Z,25.00
2018-02-22T02:16:11.149Z,28.57
2018-02-22T02:18:38.634Z,22.57
2018-02-22T02:21:06.099Z,29.30
2018-02-22T02:23:33.563Z,20.10
2018-02-22T02:26:01.038Z,22.80
2018-02-22T02:28:28.570Z,22.90
2018-02-22T02:30:56.110Z,28.80
2018-02-22T02:33:23.584Z,27.00
2018-02-22T02:35:51.046Z,22.63
2018-02-22T02:38:18.605Z,27.37
2018-02-22T02:40:46.118Z,29.33
2018-02-22T02:43:13.551Z,27.70
2018-02-22T02:45:41.046Z,31.27
2018-02-22T02:48:08.503Z,27.20
2018-02-22T02:50:35.987Z,35.37
2018-02-22T02:53:03.462Z,21.20
2018-02-22T02:55:31.023Z,23.93
2018-02-22T02:57:58.502Z,26.20
2018-02-22T03:00:25.967Z,24.80
2018-02-22T03:02:53.444Z,19.90
2018-02-22T03:05:20.938Z,22.00
2018-02-22T03:07:48.397Z,25.30
2018-02-22T03:10:15.863Z,26.07
2018-02-22T03:12:43.443Z,26.67
2018-02-22T03:15:10.986Z,15.83
2018-02-22T03:17:38.554Z,29.50
2018-02-22T03:20:06.212Z,26.07
2018-02-22T03:22:33.708Z,23.03
2018-02-22T03:25:01.168Z,24.20
2018-02-22T03:27:28.643Z,25.33
2018-02-22T03:29:56.105Z,28.17
2018-02-22T03:32:23.568Z,30.20
2018-02-22T03:34:51.065Z,33.67
2018-02-22T03:37:18.622Z,23.17
2018-02-22T03:39:46.083Z,27.67
2018-02-22T03:42:13.557Z,28.90
2018-02-22T03:44:41.013Z,27.70
2018-02-22T03:47:08.476Z,35.57
2018-02-22T03:49:35.966Z,34.77
2018-02-22T03:52:03.426Z,30.87
2018-02-22T03:54:30.887Z,27.80
2018-02-22T03:56:58.390Z,32.10
2018-02-22T03:59:25.854Z,31.00
2018-02-22T04:01:53.315Z,32.07
2018-02-22T04:04:20.816Z,34.53
2018-02-22T04:06:48.275Z,26.40
2018-02-22T04:09:15.738Z,31.17
2018-02-22T04:11:43.211Z,26.73
2018-02-22T04:14:10.688Z,23.77
2018-02-22T04:16:38.241Z,28.27
2018-02-22T04:19:05.714Z,29.07
2018-02-22T04:21:33.199Z,29.40
2018-02-22T04:24:00.661Z,21.27
2018-02-22T04:26:28.117Z,27.53
2018-02-22T04:28:55.594Z,37.00
2018-02-22T04:31:23.080Z,37.37
2018-02-22T04:33:50.549Z,20.30
2018-02-22T04:36:18.015Z,44.23
2018-02-22T04:38:45.494Z,26.53
2018-02-22T04:41:13.006Z,36.50
2018-02-22T04:43:40.563Z,26.30
2018-02-22T04:46:09.092Z,29.17
2018-02-22T04:48:36.582Z,39.90
2018-02-22T04:51:04.065Z,33.30
2018-02-22T04:53:31.623Z,36.00
2018-02-22T04:55:59.109Z,30.90
2018-02-22T04:58:26.563Z,36.07
2018-02-22T05:00:54.031Z,38.93
2018-02-22T05:03:22.333Z,33.67
2018-02-22T05:05:49.791Z,31.00
2018-02-22T05:08:17.250Z,36.43
2018-02-22T05:10:44.746Z,26.73
2018-02-22T05:13:12.221Z,31.90
2018-02-22T05:15:39.685Z,30.43
2018-02-22T05:18:07.219Z,33.20
2018-02-22T05:20:34.771Z,39.13
2018-02-22T05:23:03.261Z,45.50
2018-02-22T05:25:30.749Z,34.30
2018-02-22T05:27:58.223Z,31.80
2018-02-22T05:30:25.709Z,34.23
2018-02-22T05:32:53.187Z,35.40
2018-02-22T05:35:20.678Z,35.00
2018-02-22T05:37:48.137Z,31.20
2018-02-22T05:40:15.598Z,32.73
2018-02-22T05:42:43.095Z,39.63
2018-02-22T05:45:10.570Z,27.37
2018-02-22T05:47:38.025Z,36.43
2018-02-22T05:50:05.522Z,36.30
2018-02-22T05:52:33.031Z,31.23
2018-02-22T05:55:00.490Z,32.20
2018-02-22T05:57:27.986Z,31.30
2018-02-22T05:59:55.522Z,30.90
2018-02-22T06:02:22.987Z,24.43
2018-02-22T06:04:50.492Z,32.50
2018-02-22T06:07:17.958Z,45.80
2018-02-22T06:09:45.430Z,47.07
2018-02-22T06:12:13.017Z,49.80
2018-02-22T06:14:40.565Z,40.27
2018-02-22T06:17:08.074Z,41.73
2018-02-22T06:19:35.569Z,38.60
2018-02-22T06:22:03.030Z,37.27
2018-02-22T06:24:30.494Z,36.47
2018-02-22T06:26:57.965Z,37.70
2018-02-22T06:29:25.460Z,36.37
2018-02-22T06:31:52.958Z,34.90
2018-02-22T06:34:20.450Z,32.60
2018-02-22T06:36:47.987Z,39.20
2018-02-22T06:39:15.482Z,43.17
2018-02-22T06:41:43.003Z,39.53
2018-02-22T06:44:10.563Z,38.93
2018-02-22T06:46:38.117Z,42.63
2018-02-22T06:49:05.690Z,37.10
2018-02-22T06:51:33.159Z,39.60
2018-02-22T06:54:00.650Z,37.50
2018-02-22T06:56:28.114Z,42.47
2018-02-22T06:58:55.590Z,38.50
2018-02-22T07:01:23.076Z,51.63
2018-02-22T07:03:50.542Z,49.23
2018-02-22T07:06:18.011Z,37.47
2018-02-22T07:08:45.534Z,28.20
2018-02-22T07:11:12.994Z,35.80
2018-02-22T07:13:40.456Z,41.63
2018-02-22T07:16:07.938Z,26.47
2018-02-22T07:18:35.479Z,38.20
2018-02-22T07:21:03.035Z,27.80
2018-02-22T07:23:30.590Z,42.13
2018-02-22T07:25:58.047Z,25.80
2018-02-22T07:28:25.606Z,49.77
2018-02-22T07:30:53.079Z,34.53
2018-02-22T07:33:20.548Z,40.10
2018-02-22T07:35:48.030Z,27.97
2018-02-22T07:38:15.489Z,45.73
2018-02-22T07:40:42.999Z,46.50
2018-02-22T07:43:10.509Z,40.47
2018-02-22T07:45:37.962Z,45.87
2018-02-22T07:48:05.418Z,47.53
2018-02-22T07:50:32.930Z,45.43
2018-02-22T07:53:00.393Z,36.63
2018-02-22T07:55:27.885Z,32.13
2018-02-22T07:57:55.364Z,51.17
2018-02-22T08:00:22.838Z,48.70
2018-02-22T08:02:50.302Z,47.40
2018-02-22T08:05:17.799Z,52.63
2018-02-22T08:07:45.261Z,54.00
2018-02-22T08:10:12.783Z,41.70
2018-02-22T08:12:40.274Z,46.20
2018-02-22T08:15:07.741Z,42.20
2018-02-22T08:17:35.265Z,44.50
2018-02-22T08:20:02.776Z,48.33
2018-02-22T08:22:30.319Z,43.43
2018-02-22T08:24:57.791Z,30.27
2018-02-22T08:27:25.294Z,51.10
2018-02-22T08:29:52.820Z,55.43
2018-02-22T08:32:20.305Z,44.77
2018-02-22T08:34:47.775Z,57.83
2018-02-22T08:37:15.323Z,49.70
2018-02-22T08:39:42.834Z,45.27
2018-02-22T08:42:10.291Z,46.00
2018-02-22T08:44:37.748Z,53.80
2018-02-22T08:47:05.226Z,52.70
2018-02-22T08:49:32.703Z,49.10
2018-02-22T08:52:00.162Z,40.23
2018-02-22T08:54:27.658Z,45.90
2018-02-22T08:56:55.114Z,40.10
2018-02-22T08:59:22.622Z,46.37
2018-02-22T09:01:50.109Z,41.47
2018-02-22T09:04:17.566Z,38.30
2018-02-22T09:06:45.018Z,38.97
2018-02-22T09:09:12.486Z,35.77
2018-02-22T09:11:40.035Z,30.97
2018-02-22T09:14:07.533Z,30.50
2018-02-22T09:16:34.994Z,32.77
2018-02-22T09:19:02.461Z,32.27
2018-02-22T09:21:29.939Z,36.70
2018-02-22T09:23:57.418Z,39.53
2018-02-22T09:26:24.882Z,33.37
2018-02-22T09:28:52.376Z,27.90
2018-02-22T09:31:19.838Z,33.53
2018-02-22T09:33:47.321Z,31.53
2018-02-22T09:36:14.773Z,18.20
2018-02-22T09:38:42.229Z,27.53
2018-02-22T09:41:09.718Z,25.43
2018-02-22T09:43:37.169Z,26.30
2018-02-22T09:46:04.632Z,29.87
2018-02-22T09:48:32.112Z,31.13
2018-02-22T09:50:59.573Z,26.63
2018-02-22T09:53:27.102Z,30.80
2018-02-22T09:55:54.669Z,29.80
2018-02-22T09:58:22.135Z,30.17
2018-02-22T10:00:49.594Z,29.57
2018-02-22T10:03:17.088Z,26.23
2018-02-22T10:05:44.551Z,32.80
2018-02-22T10:08:12.011Z,20.97
2018-02-22T10:10:39.518Z,19.40
2018-02-22T10:13:06.970Z,22.53
2018-02-22T10:15:34.528Z,29.43
2018-02-22T10:18:01.982Z,23.20
2018-02-22T10:20:29.438Z,24.77
2018-02-22T10:22:57.010Z,17.93
2018-02-22T10:25:24.515Z,25.57
2018-02-22T10:27:52.858Z,27.57
2018-02-22T10:30:20.411Z,22.00
2018-02-22T10:32:47.878Z,28.60
2018-02-22T10:35:15.360Z,19.93
2018-02-22T10:37:42.830Z,24.37
2018-02-22T10:40:10.283Z,20.77
2018-02-22T10:42:37.738Z,25.90
2018-02-22T10:45:05.223Z,24.73
2018-02-22T10:47:32.707Z,15.93
2018-02-22T10:50:00.275Z,21.07
2018-02-22T10:52:27.777Z,24.10
2018-02-22T10:54:55.290Z,17.53
2018-02-22T10:57:22.738Z,27.10
2018-02-22T10:59:50.220Z,35.13
2018-02-22T11:02:23.301Z,17.60
2018-02-22T11:04:50.891Z,22.83
2018-02-22T11:07:18.355Z,17.73
2018-02-22T11:09:45.805Z,18.93
2018-02-22T11:12:13.282Z,20.30
2018-02-22T11:14:40.745Z,23.23
2018-02-22T11:17:08.198Z,18.37
2018-02-22T11:19:35.685Z,20.17
2018-02-22T11:22:03.151Z,21.77
2018-02-22T11:24:30.609Z,23.80
2018-02-22T11:26:58.109Z,20.23
2018-02-22T11:29:25.647Z,17.00
2018-02-22T11:31:53.098Z,23.50
2018-02-22T11:34:20.573Z,23.10
2018-02-22T11:36:48.020Z,14.60
2018-02-22T11:39:15.481Z,19.37
2018-02-22T11:41:43.035Z,24.13
2018-02-22T11:44:10.511Z,20.77
2018-02-22T11:46:38.059Z,33.60
2018-02-22T11:49:05.577Z,18.50
2018-02-22T11:51:33.028Z,15.80
2018-02-22T11:54:00.487Z,23.37
2018-02-22T11:56:27.999Z,27.67
2018-02-22T11:58:55.458Z,22.10
2018-02-22T12:01:23.015Z,15.63
2018-02-22T12:03:50.490Z,21.50
2018-02-22T12:06:17.947Z,23.70
2018-02-22T12:08:45.491Z,23.53
2018-02-22T12:11:12.970Z,21.83
2018-02-22T12:13:40.461Z,24.07
2018-02-22T12:16:07.918Z,21.87
2018-02-22T12:18:35.417Z,14.97
2018-02-22T12:21:02.879Z,16.13
2018-02-22T12:23:30.335Z,21.20
2018-02-22T12:25:57.806Z,14.07
2018-02-22T12:28:25.254Z,18.90
2018-02-22T12:30:52.777Z,22.40
2018-02-22T12:33:20.267Z,23.67
2018-02-22T12:35:47.774Z,25.10
2018-02-22T12:38:15.335Z,18.07
2018-02-22T12:40:42.890Z,24.57
2018-02-22T12:43:10.346Z,18.43
2018-02-22T12:45:37.838Z,18.53
2018-02-22T12:48:05.362Z,11.83
2018-02-22T12:50:32.823Z,16.80
2018-02-22T12:53:00.274Z,17.23
2018-02-22T12:55:27.845Z,17.70
2018-02-22T12:57:55.296Z,11.00
2018-02-22T13:00:22.767Z,15.87
2018-02-22T13:02:50.314Z,22.83
2018-02-22T13:05:17.822Z,12.63
2018-02-22T13:07:45.278Z,18.50
2018-02-22T13:10:12.786Z,18.23
2018-02-22T13:12:40.346Z,16.70
2018-02-22T13:15:07.806Z,21.10
2018-02-22T13:17:35.290Z,15.10
2018-02-22T13:20:02.747Z,17.17
2018-02-22T13:22:30.278Z,20.60
2018-02-22T13:24:57.758Z,20.07
2018-02-22T13:27:25.243Z,24.60
2018-02-22T13:29:52.710Z,22.30
2018-02-22T13:32:20.187Z,21.20
2018-02-22T13:34:47.646Z,11.67
2018-02-22T13:37:26.814Z,17.50
2018-02-22T13:39:54.267Z,17.20
2018-02-22T13:42:21.761Z,15.40
2018-02-22T13:45:01.042Z,14.30
2018-02-22T13:47:28.552Z,13.90
2018-02-22T13:50:07.922Z,18.10
2018-02-22T13:52:35.409Z,12.30
2018-02-22T13:55:02.954Z,16.80
2018-02-22T13:57:30.411Z,17.20
2018-02-22T13:59:57.905Z,10.67
2018-02-22T14:02:26.161Z,13.70
2018-02-22T14:04:53.642Z,11.23
2018-02-22T14:07:21.111Z,14.57
2018-02-22T14:09:48.670Z,20.70
2018-02-22T14:12:16.139Z,10.70
2018-02-22T14:14:43.633Z,11.50
2018-02-22T14:17:11.103Z,12.37
2018-02-22T14:19:38.650Z,9.40
2018-02-22T14:22:06.114Z,13.40
2018-02-22T14:24:33.615Z,9.53
2018-02-22T14:27:01.087Z,13.23
2018-02-22T14:29:28.542Z,13.73
2018-02-22T14:31:56.013Z,14.27
2018-02-22T14:34:23.473Z,10.27
2018-02-22T14:36:50.965Z,9.80
2018-02-22T14:39:18.422Z,8.13
2018-02-22T14:41:45.968Z,11.83
2018-02-22T14:44:13.419Z,20.03
2018-02-22T14:46:40.882Z,12.83
2018-02-22T14:49:08.347Z,9.50
2018-02-22T14:51:35.814Z,10.03
2018-02-22T14:54:03.274Z,8.63
2018-02-22T14:56:30.735Z,8.20
2018-02-22T14:58:58.274Z,10.47
2018-02-22T15:01:25.749Z,10.17
2018-02-22T15:03:53.210Z,9.60
2018-02-22T15:06:20.742Z,9.43
2018-02-22T15:08:48.194Z,6.77
2018-02-22T15:11:15.657Z,14.80
2018-02-22T15:13:43.130Z,4.83
2018-02-22T15:16:10.593Z,12.33
2018-02-22T15:18:38.131Z,10.40
2018-02-22T15:21:05.597Z,16.53
2018-02-22T15:23:33.149Z,11.73
2018-02-22T15:26:00.598Z,10.23
2018-02-22T15:28:28.080Z,8.63
2018-02-22T15:30:55.570Z,12.90
2018-02-22T15:33:23.022Z,8.80
2018-02-22T15:35:50.491Z,8.77
2018-02-22T15:38:18.028Z,10.83
2018-02-22T15:40:45.474Z,8.67
2018-02-22T15:43:12.927Z,14.60
2018-02-22T15:45:40.475Z,13.40
2018-02-22T15:48:07.926Z,12.23
2018-02-22T15:50:35.401Z,12.90
2018-02-22T15:53:02.890Z,11.40
2018-02-22T15:55:30.370Z,13.57
2018-02-22T15:57:57.824Z,21.00
2018-02-22T16:00:25.290Z,13.50
2018-02-22T16:02:52.763Z,19.90
2018-02-22T16:05:20.214Z,11.67
2018-02-22T16:07:47.690Z,17.10
2018-02-22T16:10:15.154Z,14.40
2018-02-22T16:12:42.610Z,17.00
2018-02-22T16:15:10.167Z,16.87
2018-02-22T16:17:37.622Z,17.13
2018-02-22T16:20:05.095Z,16.00
2018-02-22T16:22:32.646Z,12.33
2018-02-22T16:25:00.135Z,22.73
2018-02-22T16:27:27.650Z,18.93
2018-02-22T16:29:55.127Z,24.47
2018-02-22T16:32:22.594Z,16.63
2018-02-22T16:34:50.046Z,16.37
2018-02-22T16:37:17.506Z,16.70
2018-02-22T16:39:45.034Z,15.47
2018-02-22T16:42:12.486Z,13.03
2018-02-22T16:44:39.982Z,16.67
2018-02-22T16:47:07.441Z,16.83
2018-02-22T16:49:34.917Z,21.43
2018-02-22T16:52:02.366Z,17.00
2018-02-22T16:54:29.837Z,20.60
2018-02-22T16:56:57.365Z,16.43
2018-02-22T16:59:24.953Z,24.00
2018-02-22T17:01:52.509Z,17.03
2018-02-22T17:04:19.963Z,20.37
2018-02-22T17:06:47.435Z,19.63
2018-02-22T17:09:14.927Z,21.77
2018-02-22T17:11:42.493Z,15.33
2018-02-22T17:14:09.951Z,18.33
2018-02-22T17:16:37.456Z,9.77
2018-02-22T17:19:04.923Z,12.97
2018-02-22T17:21:32.394Z,18.13
2018-02-22T17:23:59.890Z,16.43
2018-02-22T17:26:33.039Z,16.30
2018-02-22T17:29:06.139Z,14.20
2018-02-22T17:31:39.102Z,16.57
2018-02-22T17:34:06.562Z,31.43
2018-02-22T17:36:38.598Z,22.10
2018-02-22T17:39:17.739Z,17.27
2018-02-22T17:41:45.230Z,19.20
2018-02-22T17:44:12.686Z,18.53
2018-02-22T17:46:40.146Z,21.07
2018-02-22T17:49:07.631Z,13.33
2018-02-22T17:51:35.083Z,15.67
2018-02-22T17:54:02.545Z,17.40
2018-02-22T17:56:30.019Z,18.33
2018-02-22T17:58:57.474Z,15.47
2018-02-22T18:01:24.941Z,20.67
2018-02-22T18:03:52.445Z,20.70
2018-02-22T18:06:19.918Z,23.33
2018-02-22T18:08:47.374Z,20.50
2018-02-22T18:11:15.434Z,25.47
2018-02-22T18:13:43.106Z,23.40
2018-02-22T18:16:10.622Z,18.80
2018-02-22T18:18:38.422Z,18.33
2018-02-22T18:21:06.031Z,16.50
2018-02-22T18:23:34.112Z,15.47
2018-02-22T18:26:02.151Z,14.00
2018-02-22T18:28:29.678Z,12.87
2018-02-22T18:30:57.707Z,10.30
2018-02-22T18:33:25.249Z,15.30
2018-02-22T18:35:52.733Z,10.47
2018-02-22T18:38:20.244Z,7.20
2018-02-22T18:40:53.262Z,21.03
2018-02-22T18:43:26.309Z,11.70
2018-02-22T18:45:53.784Z,10.60
2018-02-22T18:48:21.265Z,16.57
2018-02-22T18:50:48.749Z,10.80
2018-02-22T18:53:16.210Z,12.27
2018-02-22T18:55:43.674Z,10.93
2018-02-22T18:58:11.547Z,13.50
2018-02-22T19:00:38.989Z,9.60
2018-02-22T19:03:06.694Z,8.80
2018-02-22T19:05:34.245Z,9.40
2018-02-22T19:08:01.708Z,12.67
2018-02-22T19:10:29.264Z,12.10
2018-02-22T19:12:56.845Z,12.20
2018-02-22T19:15:24.338Z,14.00
2018-02-22T19:17:51.823Z,21.27
2018-02-22T19:20:19.270Z,10.73
2018-02-22T19:22:46.814Z,13.43
2018-02-22T19:25:14.275Z,15.90
2018-02-22T19:27:41.810Z,8.47
2018-02-22T19:30:09.351Z,9.93
2018-02-22T19:32:36.805Z,9.17
2018-02-22T19:35:04.282Z,8.70
2018-02-22T19:37:31.758Z,5.73
2018-02-22T19:39:59.274Z,8.87
2018-02-22T19:42:26.818Z,11.60
2018-02-22T19:44:54.282Z,11.23
2018-02-22T19:47:21.792Z,9.20
2018-02-22T19:49:49.269Z,14.40
2018-02-22T19:52:16.719Z,18.20
2018-02-22T19:54:44.180Z,12.23
2018-02-22T19:57:11.679Z,17.10
2018-02-22T19:59:39.133Z,21.57
2018-02-22T20:02:06.598Z,14.17
2018-02-22T20:04:34.061Z,14.53
2018-02-22T20:07:01.549Z,17.80
2018-02-22T20:09:29.067Z,16.00
2018-02-22T20:11:56.621Z,15.60
2018-02-22T20:14:24.126Z,13.70
2018-02-22T20:16:51.625Z,16.00
2018-02-22T20:19:19.049Z,8.27
2018-02-22T20:21:46.519Z,11.37
2018-02-22T20:24:14.005Z,12.03
2018-02-22T20:26:41.478Z,17.50
2018-02-22T20:29:08.926Z,13.23
2018-02-22T20:31:36.398Z,15.53
2018-02-22T20:34:03.862Z,16.30
2018-02-22T20:36:31.326Z,20.33
2018-02-22T20:38:58.814Z,11.37
2018-02-22T20:41:26.266Z,17.73
2018-02-22T20:43:53.791Z,11.50
2018-02-22T20:46:21.335Z,15.40
2018-02-22T20:48:48.798Z,9.60
2018-02-22T20:51:21.818Z,13.77
2018-02-22T20:53:49.286Z,10.80
2018-02-22T20:56:16.736Z,15.00
2018-02-22T20:58:44.197Z,15.77
2018-02-22T21:01:11.671Z,24.70
2018-02-22T21:03:39.610Z,14.67
2018-02-22T21:06:07.086Z,19.10
2018-02-22T21:08:34.555Z,20.63
2018-02-22T21:11:02.029Z,25.23
2018-02-22T21:13:29.494Z,20.97
2018-02-22T21:15:56.958Z,20.30
2018-02-22T21:18:24.519Z,21.00
2018-02-22T21:20:51.978Z,19.30
2018-02-22T21:23:19.451Z,15.00
2018-02-22T21:25:46.916Z,83.13
2018-02-22T21:28:14.451Z,12.13
2018-02-22T21:30:41.934Z,16.10
2018-02-22T21:33:09.393Z,17.30
2018-02-22T21:35:36.866Z,25.83
2018-02-22T21:38:04.432Z,18.17
2018-02-22T21:40:31.907Z,22.50
2018-02-22T21:42:59.360Z,22.03
2018-02-22T21:45:26.856Z,25.70
2018-02-22T21:47:54.437Z,21.77
2018-02-22T21:50:21.965Z,30.20
2018-02-22T21:52:49.427Z,30.40
2018-02-22T21:55:16.987Z,21.17
2018-02-22T21:57:44.442Z,26.40
2018-02-22T22:00:11.903Z,19.83
2018-02-22T22:02:39.411Z,28.43
2018-02-22T22:05:06.870Z,22.20
2018-02-22T22:07:34.442Z,21.97
2018-02-22T22:10:01.902Z,35.60
2018-02-22T22:12:29.359Z,30.70
2018-02-22T22:14:56.831Z,27.60
2018-02-22T22:17:24.306Z,23.93
2018-02-22T22:19:51.799Z,39.53
2018-02-22T22:22:19.250Z,28.80
2018-02-22T22:24:46.839Z,22.07
2018-02-22T22:27:14.283Z,9.50
2018-02-22T22:29:41.803Z,27.50
2018-02-22T22:32:09.280Z,18.93
2018-02-22T22:34:36.750Z,25.83
2018-02-22T22:37:04.233Z,27.70
2018-02-22T22:39:31.696Z,23.80
2018-02-22T22:41:59.154Z,26.37
2018-02-22T22:44:26.659Z,28.80
2018-02-22T22:46:54.118Z,32.87
2018-02-22T22:49:21.594Z,28.30
2018-02-22T22:51:49.124Z,25.07
2018-02-22T22:54:16.622Z,16.57
2018-02-22T22:56:44.079Z,21.70
2018-02-22T22:59:11.622Z,21.47
2018-02-22T23:01:39.106Z,23.20
2018-02-22T23:04:06.619Z,25.30
2018-02-22T23:06:34.190Z,23.10
2018-02-22T23:09:01.654Z,24.13
2018-02-22T23:11:29.139Z,23.97
2018-02-22T23:13:56.598Z,28.50
2018-02-22T23:16:24.106Z,23.97
2018-02-22T23:18:51.577Z,25.30
2018-02-22T23:21:19.094Z,22.63
2018-02-22T23:23:46.570Z,19.33
2018-02-22T23:26:14.131Z,19.40
2018-02-22T23:28:41.620Z,23.40
2018-02-22T23:31:09.097Z,12.27
2018-02-22T23:33:36.561Z,13.80
2018-02-22T23:36:04.034Z,43.03
2018-02-22T23:38:31.502Z,22.97
2018-02-22T23:40:59.869Z,21.77
2018-02-22T23:43:27.331Z,21.60
2018-02-22T23:45:54.803Z,27.20
2018-02-22T23:48:22.257Z,14.13
2018-02-22T23:50:49.743Z,23.00
2018-02-22T23:53:17.214Z,17.90
2018-02-22T23:55:44.711Z,17.70
2018-02-22T23:58:12.184Z,22.30
